sensor_id;sensor_type;location;lat;lon;timestamp;P1;durP1;ratioP1;P2;durP2;ratioP2
51866;SDS011;52862;52.504;13.480;2022-09-09T00:00:57;18.27;;;11.60;;
51866;SDS011;52862;52.504;13.480;2022-09-09T00:03:34;20.07;;;11.87;;
51866;SDS011;52862;52.504;13.480;2022-09-09T00:06:13;21.40;;;12.00;;
51866;SDS011;52862;52.504;13.480;2022-09-09T00:08:47;25.63;;;11.87;;
51866;SDS011;52862;52.504;13.480;2022-09-09T00:11:21;26.83;;;11.73;;
51866;SDS011;52862;52.504;13.480;2022-09-09T00:13:57;17.50;;;11.73;;
51866;SDS011;52862;52.504;13.480;2022-09-09T00:16:28;15.93;;;11.27;;
51866;SDS011;52862;52.504;13.480;2022-09-09T00:19:04;29.80;;;13.83;;
51866;SDS011;52862;52.504;13.480;2022-09-09T00:21:34;20.53;;;12.97;;
51866;SDS011;52862;52.504;13.480;2022-09-09T00:24:08;23.50;;;12.47;;
51866;SDS011;52862;52.504;13.480;2022-09-09T00:26:41;17.73;;;13.00;;
51866;SDS011;52862;52.504;13.480;2022-09-09T00:29:14;17.37;;;12.23;;
51866;SDS011;52862;52.504;13.480;2022-09-09T00:31:49;22.50;;;12.27;;
51866;SDS011;52862;52.504;13.480;2022-09-09T00:34:21;20.13;;;12.43;;
51866;SDS011;52862;52.504;13.480;2022-09-09T00:36:50;22.13;;;12.63;;
51866;SDS011;52862;52.504;13.480;2022-09-09T00:39:20;17.47;;;12.37;;
51866;SDS011;52862;52.504;13.480;2022-09-09T00:41:56;21.23;;;11.83;;
51866;SDS011;52862;52.504;13.480;2022-09-09T00:44:36;16.93;;;11.60;;
51866;SDS011;52862;52.504;13.480;2022-09-09T00:47:11;20.67;;;12.67;;
51866;SDS011;52862;52.504;13.480;2022-09-09T00:49:47;23.37;;;12.90;;
51866;SDS011;52862;52.504;13.480;2022-09-09T00:52:30;19.07;;;13.03;;
51866;SDS011;52862;52.504;13.480;2022-09-09T00:55:06;27.67;;;13.73;;
51866;SDS011;52862;52.504;13.480;2022-09-09T00:57:39;28.17;;;11.80;;
51866;SDS011;52862;52.504;13.480;2022-09-09T01:00:19;22.43;;;12.87;;
51866;SDS011;52862;52.504;13.480;2022-09-09T01:02:58;25.27;;;12.83;;
51866;SDS011;52862;52.504;13.480;2022-09-09T01:05:40;19.43;;;12.87;;
51866;SDS011;52862;52.504;13.480;2022-09-09T01:08:14;19.60;;;12.13;;
51866;SDS011;52862;52.504;13.480;2022-09-09T01:10:50;21.97;;;13.00;;
51866;SDS011;52862;52.504;13.480;2022-09-09T01:13:20;16.20;;;11.87;;
51866;SDS011;52862;52.504;13.480;2022-09-09T01:15:51;16.80;;;11.57;;
51866;SDS011;52862;52.504;13.480;2022-09-09T01:18:27;26.47;;;11.20;;
51866;SDS011;52862;52.504;13.480;2022-09-09T01:21:02;19.80;;;11.07;;
51866;SDS011;52862;52.504;13.480;2022-09-09T01:23:41;19.27;;;10.57;;
51866;SDS011;52862;52.504;13.480;2022-09-09T01:26:18;16.53;;;9.83;;
51866;SDS011;52862;52.504;13.480;2022-09-09T01:28:50;18.40;;;10.23;;
51866;SDS011;52862;52.504;13.480;2022-09-09T01:31:19;17.53;;;9.67;;
51866;SDS011;52862;52.504;13.480;2022-09-09T01:33:49;16.20;;;10.10;;
51866;SDS011;52862;52.504;13.480;2022-09-09T01:36:18;16.20;;;10.40;;
51866;SDS011;52862;52.504;13.480;2022-09-09T01:38:53;15.23;;;10.07;;
51866;SDS011;52862;52.504;13.480;2022-09-09T01:41:21;13.03;;;9.80;;
51866;SDS011;52862;52.504;13.480;2022-09-09T01:43:48;13.40;;;10.30;;
51866;SDS011;52862;52.504;13.480;2022-09-09T01:46:16;17.10;;;10.70;;
51866;SDS011;52862;52.504;13.480;2022-09-09T01:48:43;16.47;;;9.83;;
51866;SDS011;52862;52.504;13.480;2022-09-09T01:51:11;15.77;;;9.93;;
51866;SDS011;52862;52.504;13.480;2022-09-09T01:53:38;22.47;;;11.27;;
51866;SDS011;52862;52.504;13.480;2022-09-09T01:56:10;19.83;;;11.00;;
51866;SDS011;52862;52.504;13.480;2022-09-09T01:58:47;16.40;;;11.07;;
51866;SDS011;52862;52.504;13.480;2022-09-09T02:01:28;17.43;;;10.83;;
51866;SDS011;52862;52.504;13.480;2022-09-09T02:04:03;17.93;;;11.10;;
51866;SDS011;52862;52.504;13.480;2022-09-09T02:06:37;28.77;;;10.63;;
51866;SDS011;52862;52.504;13.480;2022-09-09T02:09:06;19.83;;;11.03;;
51866;SDS011;52862;52.504;13.480;2022-09-09T02:11:36;17.03;;;10.93;;
51866;SDS011;52862;52.504;13.480;2022-09-09T02:14:05;16.37;;;10.70;;
51866;SDS011;52862;52.504;13.480;2022-09-09T02:16:37;14.53;;;10.70;;
51866;SDS011;52862;52.504;13.480;2022-09-09T02:19:08;19.33;;;10.87;;
51866;SDS011;52862;52.504;13.480;2022-09-09T02:21:38;22.63;;;9.63;;
51866;SDS011;52862;52.504;13.480;2022-09-09T02:24:08;14.70;;;10.00;;
51866;SDS011;52862;52.504;13.480;2022-09-09T02:26:38;17.10;;;10.27;;
51866;SDS011;52862;52.504;13.480;2022-09-09T02:29:09;20.83;;;10.40;;
51866;SDS011;52862;52.504;13.480;2022-09-09T02:31:41;18.87;;;10.27;;
51866;SDS011;52862;52.504;13.480;2022-09-09T02:34:09;18.10;;;10.07;;
51866;SDS011;52862;52.504;13.480;2022-09-09T02:36:38;15.40;;;9.73;;
51866;SDS011;52862;52.504;13.480;2022-09-09T02:39:07;17.40;;;9.87;;
51866;SDS011;52862;52.504;13.480;2022-09-09T02:41:36;26.00;;;9.50;;
51866;SDS011;52862;52.504;13.480;2022-09-09T02:44:05;16.83;;;9.83;;
51866;SDS011;52862;52.504;13.480;2022-09-09T02:46:37;16.43;;;10.03;;
51866;SDS011;52862;52.504;13.480;2022-09-09T02:49:18;17.60;;;9.37;;
51866;SDS011;52862;52.504;13.480;2022-09-09T02:51:53;17.17;;;9.67;;
51866;SDS011;52862;52.504;13.480;2022-09-09T02:54:27;15.60;;;10.23;;
51866;SDS011;52862;52.504;13.480;2022-09-09T02:56:57;14.87;;;9.63;;
51866;SDS011;52862;52.504;13.480;2022-09-09T02:59:30;15.93;;;9.63;;
51866;SDS011;52862;52.504;13.480;2022-09-09T03:01:57;21.07;;;9.73;;
51866;SDS011;52862;52.504;13.480;2022-09-09T03:04:24;16.90;;;10.37;;
51866;SDS011;52862;52.504;13.480;2022-09-09T03:06:50;18.67;;;9.73;;
51866;SDS011;52862;52.504;13.480;2022-09-09T03:09:17;15.63;;;9.83;;
51866;SDS011;52862;52.504;13.480;2022-09-09T03:11:44;18.97;;;9.50;;
51866;SDS011;52862;52.504;13.480;2022-09-09T03:14:10;19.80;;;9.40;;
51866;SDS011;52862;52.504;13.480;2022-09-09T03:16:38;16.93;;;9.80;;
51866;SDS011;52862;52.504;13.480;2022-09-09T03:19:04;15.37;;;9.50;;
51866;SDS011;52862;52.504;13.480;2022-09-09T03:21:32;14.53;;;9.17;;
51866;SDS011;52862;52.504;13.480;2022-09-09T03:23:59;12.20;;;8.73;;
51866;SDS011;52862;52.504;13.480;2022-09-09T03:26:25;16.17;;;8.90;;
51866;SDS011;52862;52.504;13.480;2022-09-09T03:28:52;16.83;;;7.73;;
51866;SDS011;52862;52.504;13.480;2022-09-09T03:31:20;19.83;;;8.83;;
51866;SDS011;52862;52.504;13.480;2022-09-09T03:33:48;15.33;;;8.90;;
51866;SDS011;52862;52.504;13.480;2022-09-09T03:36:14;12.90;;;8.43;;
51866;SDS011;52862;52.504;13.480;2022-09-09T03:38:41;15.53;;;8.47;;
51866;SDS011;52862;52.504;13.480;2022-09-09T03:41:08;15.10;;;8.57;;
51866;SDS011;52862;52.504;13.480;2022-09-09T03:43:34;15.73;;;9.07;;
51866;SDS011;52862;52.504;13.480;2022-09-09T03:46:03;18.03;;;9.27;;
51866;SDS011;52862;52.504;13.480;2022-09-09T03:48:30;18.50;;;8.77;;
51866;SDS011;52862;52.504;13.480;2022-09-09T03:50:57;23.63;;;9.73;;
51866;SDS011;52862;52.504;13.480;2022-09-09T03:53:26;14.00;;;8.43;;
51866;SDS011;52862;52.504;13.480;2022-09-09T03:55:54;20.17;;;9.23;;
51866;SDS011;52862;52.504;13.480;2022-09-09T03:58:25;17.37;;;9.60;;
51866;SDS011;52862;52.504;13.480;2022-09-09T04:00:53;16.67;;;9.17;;
51866;SDS011;52862;52.504;13.480;2022-09-09T04:03:20;17.30;;;8.40;;
51866;SDS011;52862;52.504;13.480;2022-09-09T04:05:54;21.87;;;9.40;;
51866;SDS011;52862;52.504;13.480;2022-09-09T04:08:22;14.80;;;9.37;;
51866;SDS011;52862;52.504;13.480;2022-09-09T04:10:51;22.90;;;9.30;;
51866;SDS011;52862;52.504;13.480;2022-09-09T04:13:18;22.13;;;9.47;;
51866;SDS011;52862;52.504;13.480;2022-09-09T04:15:50;16.27;;;9.33;;
51866;SDS011;52862;52.504;13.480;2022-09-09T04:18:17;14.83;;;9.00;;
51866;SDS011;52862;52.504;13.480;2022-09-09T04:20:45;17.60;;;9.07;;
51866;SDS011;52862;52.504;13.480;2022-09-09T04:23:12;18.70;;;8.43;;
51866;SDS011;52862;52.504;13.480;2022-09-09T04:25:43;13.07;;;8.90;;
51866;SDS011;52862;52.504;13.480;2022-09-09T04:28:10;16.50;;;9.50;;
51866;SDS011;52862;52.504;13.480;2022-09-09T04:30:37;18.20;;;9.50;;
51866;SDS011;52862;52.504;13.480;2022-09-09T04:33:05;15.10;;;8.20;;
51866;SDS011;52862;52.504;13.480;2022-09-09T04:35:32;18.07;;;8.93;;
51866;SDS011;52862;52.504;13.480;2022-09-09T04:37:59;14.47;;;8.77;;
51866;SDS011;52862;52.504;13.480;2022-09-09T04:40:28;15.33;;;9.17;;
51866;SDS011;52862;52.504;13.480;2022-09-09T04:42:57;19.73;;;9.23;;
51866;SDS011;52862;52.504;13.480;2022-09-09T04:45:23;16.53;;;9.53;;
51866;SDS011;52862;52.504;13.480;2022-09-09T04:47:51;14.60;;;8.63;;
51866;SDS011;52862;52.504;13.480;2022-09-09T04:50:18;27.60;;;9.03;;
51866;SDS011;52862;52.504;13.480;2022-09-09T04:52:45;12.30;;;7.80;;
51866;SDS011;52862;52.504;13.480;2022-09-09T04:55:12;17.13;;;8.20;;
51866;SDS011;52862;52.504;13.480;2022-09-09T04:57:39;14.97;;;7.57;;
51866;SDS011;52862;52.504;13.480;2022-09-09T05:00:07;20.40;;;8.13;;
51866;SDS011;52862;52.504;13.480;2022-09-09T05:02:36;15.73;;;8.00;;
51866;SDS011;52862;52.504;13.480;2022-09-09T05:05:05;11.73;;;8.00;;
51866;SDS011;52862;52.504;13.480;2022-09-09T05:07:32;16.00;;;9.13;;
51866;SDS011;52862;52.504;13.480;2022-09-09T05:09:59;21.87;;;8.33;;
51866;SDS011;52862;52.504;13.480;2022-09-09T05:12:26;12.83;;;8.07;;
51866;SDS011;52862;52.504;13.480;2022-09-09T05:14:52;13.97;;;7.93;;
51866;SDS011;52862;52.504;13.480;2022-09-09T05:17:20;11.17;;;7.60;;
51866;SDS011;52862;52.504;13.480;2022-09-09T05:19:47;11.13;;;7.10;;
51866;SDS011;52862;52.504;13.480;2022-09-09T05:22:18;11.77;;;7.10;;
51866;SDS011;52862;52.504;13.480;2022-09-09T05:24:46;10.70;;;7.43;;
51866;SDS011;52862;52.504;13.480;2022-09-09T05:27:13;11.87;;;7.07;;
51866;SDS011;52862;52.504;13.480;2022-09-09T05:29:40;14.23;;;6.97;;
51866;SDS011;52862;52.504;13.480;2022-09-09T05:32:10;15.03;;;7.07;;
51866;SDS011;52862;52.504;13.480;2022-09-09T05:34:41;12.43;;;7.03;;
51866;SDS011;52862;52.504;13.480;2022-09-09T05:37:08;12.60;;;6.27;;
51866;SDS011;52862;52.504;13.480;2022-09-09T05:39:35;9.80;;;6.43;;
51866;SDS011;52862;52.504;13.480;2022-09-09T05:42:02;20.47;;;6.13;;
51866;SDS011;52862;52.504;13.480;2022-09-09T05:44:30;10.23;;;5.67;;
51866;SDS011;52862;52.504;13.480;2022-09-09T05:46:56;26.77;;;6.17;;
51866;SDS011;52862;52.504;13.480;2022-09-09T05:49:23;12.30;;;5.20;;
51866;SDS011;52862;52.504;13.480;2022-09-09T05:51:51;11.97;;;5.10;;
51866;SDS011;52862;52.504;13.480;2022-09-09T05:54:18;8.77;;;5.83;;
51866;SDS011;52862;52.504;13.480;2022-09-09T05:56:45;11.07;;;5.07;;
51866;SDS011;52862;52.504;13.480;2022-09-09T05:59:16;10.57;;;5.40;;
51866;SDS011;52862;52.504;13.480;2022-09-09T06:01:44;17.07;;;5.70;;
51866;SDS011;52862;52.504;13.480;2022-09-09T06:04:10;10.10;;;5.50;;
51866;SDS011;52862;52.504;13.480;2022-09-09T06:06:38;13.00;;;5.57;;
51866;SDS011;52862;52.504;13.480;2022-09-09T06:09:06;15.10;;;5.27;;
51866;SDS011;52862;52.504;13.480;2022-09-09T06:11:36;13.30;;;4.80;;
51866;SDS011;52862;52.504;13.480;2022-09-09T06:14:04;10.90;;;5.23;;
51866;SDS011;52862;52.504;13.480;2022-09-09T06:16:32;10.67;;;4.40;;
51866;SDS011;52862;52.504;13.480;2022-09-09T06:19:00;18.90;;;4.43;;
51866;SDS011;52862;52.504;13.480;2022-09-09T06:21:29;14.50;;;4.97;;
51866;SDS011;52862;52.504;13.480;2022-09-09T06:23:58;8.57;;;3.53;;
51866;SDS011;52862;52.504;13.480;2022-09-09T06:26:28;6.73;;;3.50;;
51866;SDS011;52862;52.504;13.480;2022-09-09T06:28:57;14.50;;;3.97;;
51866;SDS011;52862;52.504;13.480;2022-09-09T06:31:26;11.97;;;3.70;;
51866;SDS011;52862;52.504;13.480;2022-09-09T06:33:56;14.73;;;4.43;;
51866;SDS011;52862;52.504;13.480;2022-09-09T06:36:25;10.30;;;3.63;;
51866;SDS011;52862;52.504;13.480;2022-09-09T06:38:53;12.60;;;3.57;;
51866;SDS011;52862;52.504;13.480;2022-09-09T06:41:20;15.97;;;3.83;;
51866;SDS011;52862;52.504;13.480;2022-09-09T06:43:49;7.97;;;3.20;;
51866;SDS011;52862;52.504;13.480;2022-09-09T06:46:18;5.80;;;3.17;;
51866;SDS011;52862;52.504;13.480;2022-09-09T06:48:47;9.43;;;3.30;;
51866;SDS011;52862;52.504;13.480;2022-09-09T06:51:15;5.87;;;2.97;;
51866;SDS011;52862;52.504;13.480;2022-09-09T06:53:44;8.10;;;3.23;;
51866;SDS011;52862;52.504;13.480;2022-09-09T06:56:18;16.23;;;3.43;;
51866;SDS011;52862;52.504;13.480;2022-09-09T06:58:54;6.60;;;3.30;;
51866;SDS011;52862;52.504;13.480;2022-09-09T07:01:23;10.00;;;3.13;;
51866;SDS011;52862;52.504;13.480;2022-09-09T07:03:51;17.40;;;3.23;;
51866;SDS011;52862;52.504;13.480;2022-09-09T07:06:19;7.13;;;3.27;;
51866;SDS011;52862;52.504;13.480;2022-09-09T07:08:49;10.77;;;3.00;;
51866;SDS011;52862;52.504;13.480;2022-09-09T07:11:24;11.10;;;3.13;;
51866;SDS011;52862;52.504;13.480;2022-09-09T07:13:53;13.20;;;3.07;;
51866;SDS011;52862;52.504;13.480;2022-09-09T07:16:21;10.77;;;2.90;;
51866;SDS011;52862;52.504;13.480;2022-09-09T07:18:50;13.77;;;3.40;;
51866;SDS011;52862;52.504;13.480;2022-09-09T07:21:18;16.73;;;3.33;;
51866;SDS011;52862;52.504;13.480;2022-09-09T07:23:46;8.47;;;2.60;;
51866;SDS011;52862;52.504;13.480;2022-09-09T07:26:13;11.97;;;2.93;;
51866;SDS011;52862;52.504;13.480;2022-09-09T07:28:42;13.57;;;2.80;;
51866;SDS011;52862;52.504;13.480;2022-09-09T07:31:13;12.47;;;2.73;;
51866;SDS011;52862;52.504;13.480;2022-09-09T07:33:42;7.07;;;2.73;;
51866;SDS011;52862;52.504;13.480;2022-09-09T07:36:11;11.57;;;2.53;;
51866;SDS011;52862;52.504;13.480;2022-09-09T07:38:40;13.93;;;2.63;;
51866;SDS011;52862;52.504;13.480;2022-09-09T07:41:10;15.77;;;3.23;;
51866;SDS011;52862;52.504;13.480;2022-09-09T07:43:38;8.53;;;2.33;;
51866;SDS011;52862;52.504;13.480;2022-09-09T07:46:06;12.57;;;5.13;;
51866;SDS011;52862;52.504;13.480;2022-09-09T07:48:43;14.53;;;2.47;;
51866;SDS011;52862;52.504;13.480;2022-09-09T07:51:11;16.88;;;2.50;;
51866;SDS011;52862;52.504;13.480;2022-09-09T07:53:42;13.90;;;2.55;;
51866;SDS011;52862;52.504;13.480;2022-09-09T07:56:10;9.60;;;3.10;;
51866;SDS011;52862;52.504;13.480;2022-09-09T07:58:39;12.90;;;3.08;;
51866;SDS011;52862;52.504;13.480;2022-09-09T08:01:08;8.93;;;2.45;;
51866;SDS011;52862;52.504;13.480;2022-09-09T08:03:38;10.77;;;1.83;;
51866;SDS011;52862;52.504;13.480;2022-09-09T08:06:07;11.70;;;2.03;;
51866;SDS011;52862;52.504;13.480;2022-09-09T08:08:40;7.10;;;1.97;;
51866;SDS011;52862;52.504;13.480;2022-09-09T08:11:09;6.43;;;2.15;;
51866;SDS011;52862;52.504;13.480;2022-09-09T08:13:38;7.60;;;2.00;;
51866;SDS011;52862;52.504;13.480;2022-09-09T08:16:06;14.90;;;2.17;;
51866;SDS011;52862;52.504;13.480;2022-09-09T08:18:35;19.33;;;3.13;;
51866;SDS011;52862;52.504;13.480;2022-09-09T08:21:09;8.02;;;2.72;;
51866;SDS011;52862;52.504;13.480;2022-09-09T08:23:38;6.53;;;2.30;;
51866;SDS011;52862;52.504;13.480;2022-09-09T08:26:07;9.52;;;1.98;;
51866;SDS011;52862;52.504;13.480;2022-09-09T08:28:36;5.40;;;1.88;;
51866;SDS011;52862;52.504;13.480;2022-09-09T08:31:07;8.57;;;2.10;;
51866;SDS011;52862;52.504;13.480;2022-09-09T08:33:36;8.23;;;2.27;;
51866;SDS011;52862;52.504;13.480;2022-09-09T08:36:04;6.75;;;2.20;;
51866;SDS011;52862;52.504;13.480;2022-09-09T08:38:32;12.53;;;2.43;;
51866;SDS011;52862;52.504;13.480;2022-09-09T08:41:05;11.30;;;2.37;;
51866;SDS011;52862;52.504;13.480;2022-09-09T08:43:41;17.10;;;2.33;;
51866;SDS011;52862;52.504;13.480;2022-09-09T08:46:11;8.57;;;2.47;;
51866;SDS011;52862;52.504;13.480;2022-09-09T08:48:50;9.63;;;3.17;;
51866;SDS011;52862;52.504;13.480;2022-09-09T08:51:22;12.03;;;2.30;;
51866;SDS011;52862;52.504;13.480;2022-09-09T08:53:52;7.30;;;2.37;;
51866;SDS011;52862;52.504;13.480;2022-09-09T08:56:25;14.30;;;2.63;;
51866;SDS011;52862;52.504;13.480;2022-09-09T08:58:53;8.57;;;2.33;;
51866;SDS011;52862;52.504;13.480;2022-09-09T09:01:26;9.63;;;2.40;;
51866;SDS011;52862;52.504;13.480;2022-09-09T09:04:26;13.40;;;3.10;;
51866;SDS011;52862;52.504;13.480;2022-09-09T09:07:06;9.50;;;1.93;;
51866;SDS011;52862;52.504;13.480;2022-09-09T09:09:45;6.07;;;2.27;;
51866;SDS011;52862;52.504;13.480;2022-09-09T09:12:24;14.83;;;2.10;;
51866;SDS011;52862;52.504;13.480;2022-09-09T09:14:55;8.48;;;2.15;;
51866;SDS011;52862;52.504;13.480;2022-09-09T09:17:25;12.90;;;4.00;;
51866;SDS011;52862;52.504;13.480;2022-09-09T09:19:54;9.80;;;2.40;;
51866;SDS011;52862;52.504;13.480;2022-09-09T09:22:22;13.13;;;2.60;;
51866;SDS011;52862;52.504;13.480;2022-09-09T09:24:59;10.90;;;2.58;;
51866;SDS011;52862;52.504;13.480;2022-09-09T09:27:32;9.25;;;2.42;;
51866;SDS011;52862;52.504;13.480;2022-09-09T09:30:02;12.05;;;2.40;;
51866;SDS011;52862;52.504;13.480;2022-09-09T09:32:54;5.22;;;2.00;;
51866;SDS011;52862;52.504;13.480;2022-09-09T09:35:26;8.77;;;2.72;;
51866;SDS011;52862;52.504;13.480;2022-09-09T09:37:52;9.10;;;2.38;;
51866;SDS011;52862;52.504;13.480;2022-09-09T09:40:47;8.00;;;1.80;;
51866;SDS011;52862;52.504;13.480;2022-09-09T09:43:18;8.40;;;1.98;;
51866;SDS011;52862;52.504;13.480;2022-09-09T09:45:47;8.25;;;2.00;;
51866;SDS011;52862;52.504;13.480;2022-09-09T09:48:34;13.65;;;1.88;;
51866;SDS011;52862;52.504;13.480;2022-09-09T09:51:02;15.95;;;2.47;;
51866;SDS011;52862;52.504;13.480;2022-09-09T09:53:34;6.03;;;1.85;;
51866;SDS011;52862;52.504;13.480;2022-09-09T09:56:04;6.47;;;2.00;;
51866;SDS011;52862;52.504;13.480;2022-09-09T09:58:37;4.93;;;1.73;;
51866;SDS011;52862;52.504;13.480;2022-09-09T10:01:18;6.22;;;2.15;;
51866;SDS011;52862;52.504;13.480;2022-09-09T10:03:50;6.75;;;2.10;;
51866;SDS011;52862;52.504;13.480;2022-09-09T10:06:29;7.97;;;1.70;;
51866;SDS011;52862;52.504;13.480;2022-09-09T10:08:57;5.60;;;1.33;;
51866;SDS011;52862;52.504;13.480;2022-09-09T10:11:34;12.18;;;2.33;;
51866;SDS011;52862;52.504;13.480;2022-09-09T10:14:12;4.32;;;1.70;;
51866;SDS011;52862;52.504;13.480;2022-09-09T10:16:57;7.30;;;2.00;;
51866;SDS011;52862;52.504;13.480;2022-09-09T10:19:44;8.43;;;1.92;;
51866;SDS011;52862;52.504;13.480;2022-09-09T10:22:26;7.10;;;1.95;;
51866;SDS011;52862;52.504;13.480;2022-09-09T10:28:03;7.53;;;2.00;;
51866;SDS011;52862;52.504;13.480;2022-09-09T10:30:47;17.55;;;1.92;;
51866;SDS011;52862;52.504;13.480;2022-09-09T10:33:28;8.70;;;1.90;;
51866;SDS011;52862;52.504;13.480;2022-09-09T10:36:03;6.63;;;2.00;;
51866;SDS011;52862;52.504;13.480;2022-09-09T10:38:50;5.72;;;1.60;;
51866;SDS011;52862;52.504;13.480;2022-09-09T10:41:26;9.00;;;1.55;;
51866;SDS011;52862;52.504;13.480;2022-09-09T10:44:09;7.97;;;2.15;;
51866;SDS011;52862;52.504;13.480;2022-09-09T10:46:52;7.30;;;1.67;;
51866;SDS011;52862;52.504;13.480;2022-09-09T10:49:47;5.50;;;1.73;;
51866;SDS011;52862;52.504;13.480;2022-09-09T10:52:25;26.98;;;2.67;;
51866;SDS011;52862;52.504;13.480;2022-09-09T10:54:59;7.55;;;2.13;;
51866;SDS011;52862;52.504;13.480;2022-09-09T10:57:34;12.07;;;1.85;;
51866;SDS011;52862;52.504;13.480;2022-09-09T11:00:17;6.10;;;1.80;;
51866;SDS011;52862;52.504;13.480;2022-09-09T11:02:47;8.00;;;1.70;;
51866;SDS011;52862;52.504;13.480;2022-09-09T11:05:19;7.78;;;1.77;;
51866;SDS011;52862;52.504;13.480;2022-09-09T11:07:52;11.32;;;2.10;;
51866;SDS011;52862;52.504;13.480;2022-09-09T11:10:29;15.15;;;1.98;;
51866;SDS011;52862;52.504;13.480;2022-09-09T11:13:11;5.18;;;1.83;;
51866;SDS011;52862;52.504;13.480;2022-09-09T11:15:42;7.38;;;1.98;;
51866;SDS011;52862;52.504;13.480;2022-09-09T11:18:13;10.75;;;1.92;;
51866;SDS011;52862;52.504;13.480;2022-09-09T11:20:45;9.45;;;3.08;;
51866;SDS011;52862;52.504;13.480;2022-09-09T11:23:18;5.07;;;1.92;;
51866;SDS011;52862;52.504;13.480;2022-09-09T11:25:52;3.42;;;1.35;;
51866;SDS011;52862;52.504;13.480;2022-09-09T11:28:31;11.82;;;1.58;;
51866;SDS011;52862;52.504;13.480;2022-09-09T11:31:21;8.40;;;1.40;;
51866;SDS011;52862;52.504;13.480;2022-09-09T11:36:55;5.05;;;1.00;;
51866;SDS011;52862;52.504;13.480;2022-09-09T11:39:38;4.82;;;1.35;;
51866;SDS011;52862;52.504;13.480;2022-09-09T11:42:20;6.35;;;2.38;;
51866;SDS011;52862;52.504;13.480;2022-09-09T11:44:49;6.70;;;1.92;;
51866;SDS011;52862;52.504;13.480;2022-09-09T11:47:22;7.00;;;1.65;;
51866;SDS011;52862;52.504;13.480;2022-09-09T11:49:52;10.77;;;1.50;;
51866;SDS011;52862;52.504;13.480;2022-09-09T11:52:21;4.88;;;1.33;;
51866;SDS011;52862;52.504;13.480;2022-09-09T11:54:51;11.32;;;2.60;;
51866;SDS011;52862;52.504;13.480;2022-09-09T11:57:24;12.38;;;2.00;;
51866;SDS011;52862;52.504;13.480;2022-09-09T11:59:56;7.57;;;1.63;;
51866;SDS011;52862;52.504;13.480;2022-09-09T12:02:24;9.20;;;2.55;;
51866;SDS011;52862;52.504;13.480;2022-09-09T12:04:56;11.57;;;1.85;;
51866;SDS011;52862;52.504;13.480;2022-09-09T12:07:32;9.98;;;1.58;;
51866;SDS011;52862;52.504;13.480;2022-09-09T12:10:03;7.18;;;1.42;;
51866;SDS011;52862;52.504;13.480;2022-09-09T12:12:46;7.18;;;1.98;;
51866;SDS011;52862;52.504;13.480;2022-09-09T12:15:18;11.60;;;2.00;;
51866;SDS011;52862;52.504;13.480;2022-09-09T12:17:50;6.25;;;1.58;;
51866;SDS011;52862;52.504;13.480;2022-09-09T12:20:19;8.07;;;1.98;;
51866;SDS011;52862;52.504;13.480;2022-09-09T12:22:54;11.60;;;1.88;;
51866;SDS011;52862;52.504;13.480;2022-09-09T12:25:39;6.93;;;1.55;;
51866;SDS011;52862;52.504;13.480;2022-09-09T12:28:20;4.57;;;1.40;;
51866;SDS011;52862;52.504;13.480;2022-09-09T12:30:53;7.70;;;1.40;;
51866;SDS011;52862;52.504;13.480;2022-09-09T12:33:24;5.55;;;1.38;;
51866;SDS011;52862;52.504;13.480;2022-09-09T12:36:00;9.13;;;1.80;;
51866;SDS011;52862;52.504;13.480;2022-09-09T12:38:31;5.90;;;1.75;;
51866;SDS011;52862;52.504;13.480;2022-09-09T12:41:02;16.55;;;1.15;;
51866;SDS011;52862;52.504;13.480;2022-09-09T12:43:30;12.88;;;1.33;;
51866;SDS011;52862;52.504;13.480;2022-09-09T12:45:58;4.45;;;1.13;;
51866;SDS011;52862;52.504;13.480;2022-09-09T12:48:32;13.35;;;1.70;;
51866;SDS011;52862;52.504;13.480;2022-09-09T12:51:03;4.65;;;1.48;;
51866;SDS011;52862;52.504;13.480;2022-09-09T12:53:34;8.05;;;1.52;;
51866;SDS011;52862;52.504;13.480;2022-09-09T12:56:03;5.00;;;1.60;;
51866;SDS011;52862;52.504;13.480;2022-09-09T12:58:33;8.38;;;1.70;;
51866;SDS011;52862;52.504;13.480;2022-09-09T13:01:03;4.25;;;1.20;;
51866;SDS011;52862;52.504;13.480;2022-09-09T13:03:32;5.95;;;1.90;;
51866;SDS011;52862;52.504;13.480;2022-09-09T13:06:10;12.68;;;1.63;;
51866;SDS011;52862;52.504;13.480;2022-09-09T13:08:40;7.63;;;1.45;;
51866;SDS011;52862;52.504;13.480;2022-09-09T13:11:07;7.28;;;1.73;;
51866;SDS011;52862;52.504;13.480;2022-09-09T13:13:40;5.57;;;1.50;;
51866;SDS011;52862;52.504;13.480;2022-09-09T13:16:18;7.30;;;1.35;;
51866;SDS011;52862;52.504;13.480;2022-09-09T13:18:48;7.30;;;1.88;;
51866;SDS011;52862;52.504;13.480;2022-09-09T13:21:16;7.15;;;1.40;;
51866;SDS011;52862;52.504;13.480;2022-09-09T13:23:47;4.85;;;1.42;;
51866;SDS011;52862;52.504;13.480;2022-09-09T13:26:22;5.40;;;1.40;;
51866;SDS011;52862;52.504;13.480;2022-09-09T13:28:52;5.10;;;1.55;;
51866;SDS011;52862;52.504;13.480;2022-09-09T13:31:20;7.05;;;1.30;;
51866;SDS011;52862;52.504;13.480;2022-09-09T13:33:48;6.10;;;1.50;;
51866;SDS011;52862;52.504;13.480;2022-09-09T13:36:15;11.55;;;1.50;;
51866;SDS011;52862;52.504;13.480;2022-09-09T13:38:53;6.65;;;1.55;;
51866;SDS011;52862;52.504;13.480;2022-09-09T13:41:28;6.65;;;1.42;;
51866;SDS011;52862;52.504;13.480;2022-09-09T13:44:00;8.10;;;1.05;;
51866;SDS011;52862;52.504;13.480;2022-09-09T13:46:32;8.30;;;0.90;;
51866;SDS011;52862;52.504;13.480;2022-09-09T13:49:03;6.47;;;1.85;;
51866;SDS011;52862;52.504;13.480;2022-09-09T13:51:47;5.05;;;1.30;;
51866;SDS011;52862;52.504;13.480;2022-09-09T13:54:16;5.70;;;1.63;;
51866;SDS011;52862;52.504;13.480;2022-09-09T13:56:45;8.07;;;1.83;;
51866;SDS011;52862;52.504;13.480;2022-09-09T13:59:16;6.82;;;1.40;;
51866;SDS011;52862;52.504;13.480;2022-09-09T14:01:49;2.90;;;1.00;;
51866;SDS011;52862;52.504;13.480;2022-09-09T14:04:17;6.90;;;1.48;;
51866;SDS011;52862;52.504;13.480;2022-09-09T14:06:49;4.50;;;1.20;;
51866;SDS011;52862;52.504;13.480;2022-09-09T14:09:17;8.20;;;1.48;;
51866;SDS011;52862;52.504;13.480;2022-09-09T14:11:44;6.32;;;1.65;;
51866;SDS011;52862;52.504;13.480;2022-09-09T14:14:11;9.60;;;1.50;;
51866;SDS011;52862;52.504;13.480;2022-09-09T14:16:39;7.15;;;1.65;;
51866;SDS011;52862;52.504;13.480;2022-09-09T14:19:07;9.23;;;2.22;;
51866;SDS011;52862;52.504;13.480;2022-09-09T14:21:34;5.28;;;1.42;;
51866;SDS011;52862;52.504;13.480;2022-09-09T14:24:02;6.80;;;1.33;;
51866;SDS011;52862;52.504;13.480;2022-09-09T14:26:29;16.90;;;1.30;;
51866;SDS011;52862;52.504;13.480;2022-09-09T14:28:56;10.25;;;1.52;;
51866;SDS011;52862;52.504;13.480;2022-09-09T14:31:24;5.03;;;1.52;;
51866;SDS011;52862;52.504;13.480;2022-09-09T14:33:52;5.80;;;1.63;;
51866;SDS011;52862;52.504;13.480;2022-09-09T14:36:21;6.20;;;1.88;;
51866;SDS011;52862;52.504;13.480;2022-09-09T14:38:48;8.93;;;2.17;;
51866;SDS011;52862;52.504;13.480;2022-09-09T14:41:16;4.55;;;1.55;;
51866;SDS011;52862;52.504;13.480;2022-09-09T14:43:44;8.38;;;1.10;;
51866;SDS011;52862;52.504;13.480;2022-09-09T14:46:11;6.05;;;1.23;;
51866;SDS011;52862;52.504;13.480;2022-09-09T14:48:40;6.65;;;1.70;;
51866;SDS011;52862;52.504;13.480;2022-09-09T14:51:09;9.00;;;2.13;;
51866;SDS011;52862;52.504;13.480;2022-09-09T14:53:38;12.75;;;1.20;;